Mardan Weather



Mardan's Current Weather

Temprature 27.08o clear sky

clear sky

Rain: 0 %

Min Temprature27.08o
Max Temprature27.08o
Humidity31
Wind Speed3.22 m/h
Sun Rise05:04:42
Sun Set19:12:48
Current Time: 24-May-2022 08:27:14
Lat/Lon: 34.2019, 72.0525




Mardan's Geo Location



Mardan's Weather Forecast

Time Overall Temp Min Temp Max Temp Humidity Wind Speed Rain
24-May-2022 (Tue)
11:00:00 clear sky 28.510 28.510 31.380 29 3.9 m/h 0 %
14:00:00 clear sky 31.950 31.950 34.380 23 3.18 m/h 0 %
17:00:00 clear sky 34.760 34.760 34.760 16 1.42 m/h 0 %
20:00:00 clear sky 30.330 30.330 30.330 21 2.03 m/h 0 %
23:00:00 clear sky 27.900 27.900 27.900 26 1.55 m/h 0 %
25-May-2022 (Wed)
02:00:00 clear sky 25.930 25.930 25.930 29 2.73 m/h 0 %
05:00:00 clear sky 24.160 24.160 24.160 33 2.11 m/h 0 %
08:00:00 clear sky 29.760 29.760 29.760 24 0.76 m/h 0 %
11:00:00 clear sky 35.230 35.230 35.230 17 2.77 m/h 0 %
14:00:00 clear sky 37.920 37.920 37.920 14 1.68 m/h 0 %
17:00:00 clear sky 38.490 38.490 38.490 12 1.03 m/h 0 %
20:00:00 clear sky 33.580 33.580 33.580 17 2.22 m/h 0 %
23:00:00 clear sky 30.780 30.780 30.780 20 1.67 m/h 0 %
26-May-2022 (Thu)
02:00:00 clear sky 28.570 28.570 28.570 24 1.94 m/h 0 %
05:00:00 clear sky 26.780 26.780 26.780 27 1.94 m/h 0 %
08:00:00 clear sky 32.780 32.780 32.780 19 0.68 m/h 0 %
11:00:00 clear sky 38.330 38.330 38.330 14 2.32 m/h 0 %
14:00:00 clear sky 41.500 41.500 41.500 10 1.75 m/h 0 %
17:00:00 clear sky 42.220 42.220 42.220 8 1.31 m/h 0 %
20:00:00 clear sky 36.340 36.340 36.340 12 3.03 m/h 0 %
23:00:00 clear sky 32.360 32.360 32.360 16 2.93 m/h 0 %
27-May-2022 (Fri)
02:00:00 clear sky 29.580 29.580 29.580 24 2.68 m/h 0 %
05:00:00 clear sky 28.000 28.000 28.000 26 1.28 m/h 0 %
08:00:00 clear sky 34.410 34.410 34.410 18 0.23 m/h 0 %
11:00:00 clear sky 40.380 40.380 40.380 11 2.47 m/h 0 %
14:00:00 clear sky 44.000 44.000 44.000 8 2.95 m/h 0 %
17:00:00 clear sky 44.240 44.240 44.240 8 2.21 m/h 0 %
20:00:00 scattered clouds 38.190 38.190 38.190 11 1.64 m/h 0 %
23:00:00 broken clouds 34.980 34.980 34.980 14 1.54 m/h 0 %
28-May-2022 (Sat)
02:00:00 scattered clouds 31.380 31.380 31.380 19 2.13 m/h 0 %
05:00:00 scattered clouds 27.710 27.710 27.710 29 2.54 m/h 0 %
08:00:00 light rain 32.790 32.790 32.790 23 4.35 m/h 37 %
11:00:00 light rain 40.320 40.320 40.320 13 4.32 m/h 14 %
14:00:00 few clouds 44.300 44.300 44.300 9 1.67 m/h 0 %
17:00:00 few clouds 43.260 43.260 43.260 9 7.9 m/h 0 %
20:00:00 scattered clouds 35.370 35.370 35.370 20 5.97 m/h 0 %
23:00:00 scattered clouds 31.900 31.900 31.900 25 1.72 m/h 0 %
29-May-2022 (Sun)
02:00:00 broken clouds 30.810 30.810 30.810 26 1.47 m/h 0 %
05:00:00 overcast clouds 28.500 28.500 28.500 32 1.54 m/h 0 %
08:00:00 light rain 32.840 32.840 32.840 23 1.88 m/h 37 %

Famous Cities (61)